Meath Environmental Platform

Observations for Trim Market St

Time AQI Temp °C Hum % Pres Pa CO μg/m³ H₂S μg/m³ NO μg/m³ NO₂ μg/m³ O₃ μg/m³ SO₂ μg/m³ PM1 μg/m³ PM2.5 μg/m³ PM10 μg/m³
Monday 17 August 2026
00:01 2 19.7 80 2,147,483,647 0.03 0 1.81 9.7 63.58 0 0 1.17 4.13
Sunday 16 August 2026
23:59 2 19.7 80 2,147,483,647 0.02 0 1.93 0 50.76 0 0.71 1.17 3.56
23:57 2 19.7 80 2,147,483,647 0.02 0 1.86 0 46.68 0 0 1.16 4.7
23:53 2 19.7 80 2,147,483,647 0.02 0 1.9 0 43.9 0 0 1.64 4.13
23:47 2 19.8 80 2,147,483,647 0.03 0 1.91 0 46.11 0 0 1.64 4.13
23:46 2 19.7 80 2,147,483,647 0.03 0 1.89 0 41.74 0 0 1.17 3.56
23:45 2 19.8 80 2,147,483,647 0.02 0 1.9 0 48.84 0 0 0.7 2.99
23:44 2 19.7 80 2,147,483,647 0.03 0 1.9 2.55 45.9 0 0 1.17 3.56
23:43 2 19.8 80 2,147,483,647 0.03 0 1.99 0 48.71 0 0 1.17 3.56
23:42 2 19.8 80 2,147,483,647 0.03 0 1.97 0 46.77 0 0 0.7 2.99
23:41 2 19.8 80 2,147,483,647 0.04 0 2.03 0 43.6 0 0 0.7 3.56
23:40 2 19.8 80 2,147,483,647 0.04 0 2.06 0 46.69 0 0 0.7 2.99
23:39 2 19.8 80 2,147,483,647 0.04 0 2.05 0 49.22 0 0 1.17 3.56
23:38 2 19.8 80 2,147,483,647 0.07 0 2.02 5.98 48.51 0 0 1.17 3.56
23:37 2 19.7 80 2,147,483,647 0.06 0 2.04 0.6 41.9 0 0 1.17 3.56
23:36 2 19.8 80 2,147,483,647 0.11 0 2.02 1.16 37.57 0 0 0.69 3
23:35 2 19.8 80 2,147,483,647 0.04 0 1.83 0.46 55.56 0 0 0.7 2.99
23:34 2 19.8 80 2,147,483,647 0.04 0 1.9 0 49.43 0 0.71 1.16 3.56
23:31 2 19.8 80 2,147,483,647 0.04 0 1.84 0 51.08 0 0 0.7 4.13
23:22 2 19.7 80 2,147,483,647 0.08 0 1.81 6.12 56.33 0 0 1.17 3.56